Elfin Cove, AK

4:11 PM AKST on February 07, 2016 (GMT -0900)
MARITIME | | Change Station
CLOSE
Current Station
Personal Weather Station
Location: Seward, AK
Elevation: 0 ft
Nearby Weather Stations

Elev 0 ft 60.00 °N, 149.40 °W | Updated 1 hour ago

Overcast
Overcast
40.0 °F
Feels Like 33 °F
N
13.0
Wind Variable Wind from NNW
Gusts 0.0 mph

Today
High -- | Low -- °F
--% Chance of Precip.
Yesterday
High -- | Low -- °F
Precip. -- in
Pressure 30.01 in
Visibility 15.0 miles
Clouds Overcast 2200 ft
Windchill 33 °F
Dew Point 27.0 °F
Humidity 60%
Rainfall in
Snow Depth Not available.
7:57 AM 4:42 PM
Waning Crescent, 0% visible
METAR PAEL 072353Z 10009KT 15SM OVC022 03/02 A3001 RMK SPB E03015KT INTMT SHPL MAX 3.5 70075 NOSPECI
Pressure 30.01 in
Visibility 15.0 miles
Clouds Overcast 2200 ft
Windchill 33 °F
Dew Point 27.0 °F
Humidity 60%
Rainfall in
Snow Depth Not available.
7:57 AM 4:42 PM
Waning Crescent, 0% visible
METAR PAEL 072353Z 10009KT 15SM OVC022 03/02 A3001 RMK SPB E03015KT INTMT SHPL MAX 3.5 70075 NOSPECI

10-Day Weather Forecast

Almanac

Astronomy

Feb. 07, 2016 Rise Set
Actual Time
Civil Twilight
Nautical Twilight
Astronomical Twilight
Moon
Length of Visible Light
Length of Day
Tomorrow will be .
, % of the Moon is Illuminated

Today's Extremes

State Highs State Lows

Community

WunderPhotos

Upload Photos

1,891,349 photos uploaded!

WunderBlog® & News

Nearby

Air Quality

  Air Quality AQ Index Pollutant
Not available.

Snow Depth

Station Depth Elevation

Earthquake Activity

City Distance Mag. Time & Date
Minimum magnitude displayed is 2.5.

Coastal Water Temperatures

Place Temperature

Stations

Nearby Weather Stations

Station Location Temp. Windchill Dew Point Humidity Wind Precip. Elev Updated Type
                   

Watches & Warnings

There are currently no watches in effect.